Time;durP1;ratioP1;P1;durP2;ratioP2;P2;SDS_P1;SDS_P2;PMS_P1;PMS_P2;Temp;Humidity;BMP_temperature;BMP_pressure;BME280_temperature;BME280_humidity;BME280_pressure;Samples;Min_cycle;Max_cycle;Signal;HPM_P1;HPM_P2
2021/08/15 00:00:49;;;;;;;16.13;9.67;;;;;;;;;;4970100;28;20762;-67
2021/08/15 00:03:14;;;;;;;14.35;9.65;;;;;;;;;;4970545;28;20269;-66
2021/08/15 00:05:39;;;;;;;16.00;10.38;;;;;;;;;;4970236;28;20402;-66
2021/08/15 00:08:04;;;;;;;15.52;10.02;;;;;;;;;;4970292;28;20054;-66
2021/08/15 00:10:30;;;;;;;14.20;9.10;;;;;;;;;;4970537;28;20526;-67
2021/08/15 00:12:55;;;;;;;11.43;9.48;;;;;;;;;;4970507;28;20037;-66
2021/08/15 00:15:20;;;;;;;13.38;9.40;;;;;;;;;;4969988;28;20023;-66
2021/08/15 00:17:45;;;;;;;15.13;9.40;;;;;;;;;;4970462;28;20121;-65
2021/08/15 00:20:11;;;;;;;15.17;10.10;;;;;;;;;;4970066;28;20023;-66
2021/08/15 00:22:40;;;;;;;17.42;11.10;;;;;;;;;;4970572;28;20746;-66
2021/08/15 00:25:07;;;;;;;15.52;9.55;;;;;;;;;;4972263;28;20098;-67
2021/08/15 00:27:32;;;;;;;14.43;9.98;;;;;;;;;;4973587;28;20039;-66
2021/08/15 00:29:57;;;;;;;14.50;9.77;;;;;;;;;;4970283;28;20029;-66
2021/08/15 00:32:22;;;;;;;14.10;10.30;;;;;;;;;;4984672;28;20578;-66
2021/08/15 00:34:47;;;;;;;19.40;10.23;;;;;;;;;;4971898;28;20310;-66
2021/08/15 00:37:13;;;;;;;19.57;9.60;;;;;;;;;;4973827;28;20258;-66
2021/08/15 00:39:39;;;;;;;16.42;9.20;;;;;;;;;;4974269;28;20265;-66
2021/08/15 00:42:04;;;;;;;15.00;9.00;;;;;;;;;;4973977;28;20029;-66
2021/08/15 00:44:29;;;;;;;16.98;9.77;;;;;;;;;;4973719;28;20051;-66
2021/08/15 00:46:55;;;;;;;15.43;9.20;;;;;;;;;;4973646;28;20034;-65
2021/08/15 00:49:20;;;;;;;15.40;9.38;;;;;;;;;;4973878;28;20305;-66
2021/08/15 00:51:45;;;;;;;16.83;9.57;;;;;;;;;;4973831;28;20100;-66
2021/08/15 00:54:10;;;;;;;13.45;8.82;;;;;;;;;;4973709;28;20267;-66
2021/08/15 00:56:35;;;;;;;16.57;9.20;;;;;;;;;;4976941;28;20034;-67
2021/08/15 00:59:03;;;;;;;13.63;8.48;;;;;;;;;;4973641;28;20258;-66
2021/08/15 01:01:29;;;;;;;17.95;9.88;;;;;;;;;;4973782;28;20097;-66
2021/08/15 01:03:54;;;;;;;14.10;8.88;;;;;;;;;;4973495;28;20031;-66
2021/08/15 01:06:20;;;;;;;14.75;9.50;;;;;;;;;;4973606;28;20031;-65
2021/08/15 01:08:45;;;;;;;14.33;9.97;;;;;;;;;;4973606;28;20062;-66
2021/08/15 01:11:10;;;;;;;16.97;9.90;;;;;;;;;;4973597;28;20270;-66
2021/08/15 01:13:36;;;;;;;13.85;8.85;;;;;;;;;;4973411;28;20289;-66
2021/08/15 01:16:02;;;;;;;12.63;9.52;;;;;;;;;;4973646;28;20035;-67
2021/08/15 01:18:28;;;;;;;20.70;10.07;;;;;;;;;;4973362;28;20427;-66
2021/08/15 01:21:06;;;;;;;20.77;9.43;;;;;;;;;;4973750;28;20414;-66
2021/08/15 01:23:32;;;;;;;15.32;9.15;;;;;;;;;;4973295;28;20054;-66
2021/08/15 01:26:00;;;;;;;13.50;8.77;;;;;;;;;;4972914;28;20033;-65
2021/08/15 01:28:25;;;;;;;15.57;9.32;;;;;;;;;;4973235;28;20031;-66
2021/08/15 01:30:51;;;;;;;15.63;9.20;;;;;;;;;;4973170;28;20044;-66
2021/08/15 01:33:23;;;;;;;14.35;9.27;;;;;;;;;;4972637;28;20278;-66
2021/08/15 01:35:48;;;;;;;14.65;9.88;;;;;;;;;;4972801;28;20031;-65
2021/08/15 01:38:13;;;;;;;19.50;10.07;;;;;;;;;;4973146;28;20041;-66
2021/08/15 01:40:39;;;;;;;16.87;9.57;;;;;;;;;;4972705;28;20018;-67
2021/08/15 01:43:04;;;;;;;15.40;9.77;;;;;;;;;;4972959;28;20286;-65
2021/08/15 01:45:29;;;;;;;14.40;10.00;;;;;;;;;;4971970;28;21093;-66
2021/08/15 01:47:54;;;;;;;18.50;10.50;;;;;;;;;;4972639;28;20259;-66
2021/08/15 01:50:19;;;;;;;15.63;10.37;;;;;;;;;;4972338;28;20630;-67
2021/08/15 01:52:44;;;;;;;21.97;10.17;;;;;;;;;;4972753;28;20262;-66
2021/08/15 01:55:10;;;;;;;22.52;11.07;;;;;;;;;;4975280;28;20771;-66
2021/08/15 01:57:35;;;;;;;17.00;9.88;;;;;;;;;;4974573;28;20038;-67
2021/08/15 02:00:00;;;;;;;20.97;10.37;;;;;;;;;;4972703;28;20049;-65
2021/08/15 02:02:25;;;;;;;16.00;9.87;;;;;;;;;;4972885;28;20262;-66
2021/08/15 02:04:51;;;;;;;17.77;10.03;;;;;;;;;;4972426;28;20262;-66
2021/08/15 02:07:16;;;;;;;17.00;10.70;;;;;;;;;;4972269;28;20348;-66
2021/08/15 02:09:41;;;;;;;20.63;11.53;;;;;;;;;;4972384;28;20301;-66
2021/08/15 02:12:06;;;;;;;16.97;10.67;;;;;;;;;;4972275;28;20361;-66
2021/08/15 02:14:32;;;;;;;15.43;10.77;;;;;;;;;;4972257;28;20258;-66
2021/08/15 02:16:57;;;;;;;17.98;11.60;;;;;;;;;;4972062;28;20270;-65
2021/08/15 02:19:22;;;;;;;17.98;11.30;;;;;;;;;;4972299;28;20023;-66
2021/08/15 02:21:47;;;;;;;20.35;11.70;;;;;;;;;;4972418;28;20030;-65
2021/08/15 02:24:13;;;;;;;21.40;11.07;;;;;;;;;;4972122;28;20508;-66
2021/08/15 02:26:38;;;;;;;16.75;11.45;;;;;;;;;;4974312;28;20309;-66
2021/08/15 02:29:03;;;;;;;20.15;11.77;;;;;;;;;;4972209;28;20045;-67
2021/08/15 02:31:28;;;;;;;24.60;12.63;;;;;;;;;;4972039;28;20025;-66
2021/08/15 02:33:53;;;;;;;18.53;11.10;;;;;;;;;;4971923;28;20275;-67
2021/08/15 02:36:18;;;;;;;18.60;11.37;;;;;;;;;;4971660;28;20316;-67
2021/08/15 02:38:44;;;;;;;15.70;10.90;;;;;;;;;;4972321;28;20337;-67
2021/08/15 02:41:09;;;;;;;19.27;11.50;;;;;;;;;;4971947;28;20269;-67
2021/08/15 02:43:34;;;;;;;21.45;11.68;;;;;;;;;;4971789;28;20097;-66
2021/08/15 02:45:59;;;;;;;17.60;11.93;;;;;;;;;;4968257;28;20043;-66
2021/08/15 02:48:24;;;;;;;13.60;9.70;;;;;;;;;;4986857;28;20618;-66
2021/08/15 02:50:50;;;;;;;15.70;10.50;;;;;;;;;;4971596;28;20066;-66
2021/08/15 02:53:15;;;;;;;17.07;10.80;;;;;;;;;;4971447;28;20776;-66
2021/08/15 02:55:40;;;;;;;14.53;10.83;;;;;;;;;;4977937;28;20365;-66
2021/08/15 02:58:05;;;;;;;18.38;11.50;;;;;;;;;;4971207;28;20258;-65
2021/08/15 03:00:30;;;;;;;16.33;10.77;;;;;;;;;;4971466;28;20022;-67
2021/08/15 03:02:56;;;;;;;18.15;11.77;;;;;;;;;;4971568;28;20022;-66
2021/08/15 03:05:22;;;;;;;18.37;11.57;;;;;;;;;;4971072;28;20673;-66
2021/08/15 03:07:47;;;;;;;15.68;10.98;;;;;;;;;;4971540;28;20278;-66
2021/08/15 03:10:12;;;;;;;17.63;10.93;;;;;;;;;;4970980;28;20023;-66
2021/08/15 03:12:38;;;;;;;14.63;10.00;;;;;;;;;;4970419;28;20041;-67
2021/08/15 03:15:03;;;;;;;17.27;10.68;;;;;;;;;;4970868;28;20301;-67
2021/08/15 03:17:29;;;;;;;19.02;11.32;;;;;;;;;;4971080;28;20108;-67
2021/08/15 03:19:54;;;;;;;17.37;10.83;;;;;;;;;;4970773;28;20022;-66
2021/08/15 03:22:19;;;;;;;14.68;11.10;;;;;;;;;;4971030;28;20271;-66
2021/08/15 03:24:44;;;;;;;17.50;10.70;;;;;;;;;;4970831;28;20019;-66
2021/08/15 03:27:09;;;;;;;20.20;11.27;;;;;;;;;;4974304;28;20108;-65
2021/08/15 03:29:35;;;;;;;16.05;10.68;;;;;;;;;;4971171;28;20779;-66
2021/08/15 03:32:00;;;;;;;16.08;11.20;;;;;;;;;;4970689;28;20379;-66
2021/08/15 03:34:25;;;;;;;18.38;10.90;;;;;;;;;;4970666;28;20019;-66
2021/08/15 03:36:50;;;;;;;18.85;10.77;;;;;;;;;;4971003;28;20487;-66
2021/08/15 03:39:16;;;;;;;21.15;12.15;;;;;;;;;;4970804;28;20439;-66
2021/08/15 03:41:42;;;;;;;19.33;12.32;;;;;;;;;;4970677;28;20056;-66
2021/08/15 03:44:07;;;;;;;16.35;11.10;;;;;;;;;;4970321;28;20039;-66
2021/08/15 03:46:32;;;;;;;18.45;11.25;;;;;;;;;;4970565;28;20170;-66
2021/08/15 03:48:59;;;;;;;16.67;11.38;;;;;;;;;;4970719;28;20050;-66
2021/08/15 03:51:24;;;;;;;21.80;12.13;;;;;;;;;;4970344;28;20023;-66
2021/08/15 03:53:49;;;;;;;17.30;11.93;;;;;;;;;;4970450;28;20309;-65
2021/08/15 03:56:14;;;;;;;18.35;11.40;;;;;;;;;;4971000;28;20788;-65
2021/08/15 03:58:39;;;;;;;20.10;11.97;;;;;;;;;;4970517;28;20023;-66
2021/08/15 04:01:04;;;;;;;14.87;11.40;;;;;;;;;;4970307;28;20270;-65
2021/08/15 04:03:30;;;;;;;18.63;10.63;;;;;;;;;;4970611;28;20262;-66
2021/08/15 04:05:56;;;;;;;18.02;11.65;;;;;;;;;;4970492;28;20042;-66
2021/08/15 04:08:22;;;;;;;15.55;10.75;;;;;;;;;;4970088;28;20073;-65
2021/08/15 04:10:47;;;;;;;21.90;12.23;;;;;;;;;;4984787;28;20035;-65
2021/08/15 04:13:12;;;;;;;22.07;11.07;;;;;;;;;;4970483;28;20029;-66
2021/08/15 04:15:37;;;;;;;17.13;12.50;;;;;;;;;;4970379;28;20277;-66
2021/08/15 04:18:03;;;;;;;18.80;10.77;;;;;;;;;;4970459;28;20257;-67
2021/08/15 04:20:28;;;;;;;18.42;11.45;;;;;;;;;;4970450;28;20267;-66
2021/08/15 04:22:53;;;;;;;16.53;11.53;;;;;;;;;;4970389;28;20026;-66
2021/08/15 04:25:18;;;;;;;20.25;11.55;;;;;;;;;;4974085;28;20419;-66
2021/08/15 04:27:43;;;;;;;21.50;10.70;;;;;;;;;;4971068;28;20498;-66
2021/08/15 04:30:09;;;;;;;21.30;11.77;;;;;;;;;;4970423;28;20058;-65
2021/08/15 04:32:35;;;;;;;19.48;10.48;;;;;;;;;;4970173;28;20793;-65
2021/08/15 04:35:00;;;;;;;21.38;11.27;;;;;;;;;;4970264;28;20053;-66
2021/08/15 04:37:26;;;;;;;16.98;10.20;;;;;;;;;;4969903;28;20023;-66
2021/08/15 04:39:52;;;;;;;20.35;11.00;;;;;;;;;;4970533;28;20034;-66
2021/08/15 04:42:18;;;;;;;16.08;10.35;;;;;;;;;;4970225;28;20034;-67
2021/08/15 04:44:43;;;;;;;19.48;10.73;;;;;;;;;;4970014;28;20055;-67
2021/08/15 04:47:08;;;;;;;21.50;10.13;;;;;;;;;;4969702;28;20050;-66
2021/08/15 04:49:33;;;;;;;16.45;10.23;;;;;;;;;;4970026;28;20026;-67
2021/08/15 04:51:59;;;;;;;20.20;10.45;;;;;;;;;;4969790;28;20046;-66
2021/08/15 04:54:27;;;;;;;19.37;10.70;;;;;;;;;;4970161;28;20105;-66
2021/08/15 04:56:52;;;;;;;18.15;10.65;;;;;;;;;;4972270;28;20382;-66
2021/08/15 04:59:18;;;;;;;19.70;10.57;;;;;;;;;;4969870;28;20122;-65
2021/08/15 05:01:43;;;;;;;17.08;11.23;;;;;;;;;;4970047;28;20382;-66
2021/08/15 05:04:08;;;;;;;15.60;9.93;;;;;;;;;;4969684;28;20782;-66
2021/08/15 05:06:33;;;;;;;18.33;10.02;;;;;;;;;;4968445;28;20297;-66
2021/08/15 05:08:58;;;;;;;15.30;9.63;;;;;;;;;;4969693;28;20864;-66
2021/08/15 05:11:23;;;;;;;19.63;10.38;;;;;;;;;;4970260;28;20027;-66
2021/08/15 05:13:49;;;;;;;17.03;9.83;;;;;;;;;;4969758;28;20030;-66
2021/08/15 05:16:15;;;;;;;15.18;8.73;;;;;;;;;;4970047;28;20770;-67
2021/08/15 05:18:40;;;;;;;18.35;8.93;;;;;;;;;;4969622;28;20035;-65
2021/08/15 05:21:05;;;;;;;14.63;7.80;;;;;;;;;;4971751;28;20026;-66
2021/08/15 05:23:30;;;;;;;18.15;8.63;;;;;;;;;;4973406;28;20606;-66
2021/08/15 05:25:55;;;;;;;15.33;8.90;;;;;;;;;;4973500;28;20019;-65
2021/08/15 05:28:20;;;;;;;13.50;8.23;;;;;;;;;;4972921;28;20317;-65
2021/08/15 05:30:45;;;;;;;17.43;7.90;;;;;;;;;;4973530;28;20341;-65
2021/08/15 05:33:11;;;;;;;12.53;7.63;;;;;;;;;;4972593;28;20364;-64
2021/08/15 05:35:36;;;;;;;13.57;8.32;;;;;;;;;;4973457;28;20254;-66
2021/08/15 05:38:01;;;;;;;15.60;8.10;;;;;;;;;;4972980;28;20038;-66
2021/08/15 05:40:26;;;;;;;12.82;7.60;;;;;;;;;;4972749;28;20293;-65
2021/08/15 05:42:51;;;;;;;14.47;8.43;;;;;;;;;;4972644;28;20134;-65
2021/08/15 05:45:17;;;;;;;14.77;7.93;;;;;;;;;;4972788;28;20754;-66
2021/08/15 05:47:42;;;;;;;13.93;7.93;;;;;;;;;;4972766;28;20034;-66
2021/08/15 05:50:09;;;;;;;15.68;8.18;;;;;;;;;;4972518;28;20258;-66
2021/08/15 05:52:34;;;;;;;16.92;8.98;;;;;;;;;;4972533;28;20031;-65
2021/08/15 05:55:00;;;;;;;15.90;8.20;;;;;;;;;;4988794;28;20030;-66
2021/08/15 05:57:25;;;;;;;16.13;9.90;;;;;;;;;;4974540;28;20030;-66
2021/08/15 05:59:50;;;;;;;14.17;8.93;;;;;;;;;;4972482;28;20409;-66
2021/08/15 06:02:15;;;;;;;23.25;8.38;;;;;;;;;;4972433;28;20085;-66
2021/08/15 06:04:40;;;;;;;14.90;8.27;;;;;;;;;;4972351;28;20182;-66
2021/08/15 06:07:06;;;;;;;20.30;8.63;;;;;;;;;;4972145;28;20390;-66
2021/08/15 06:09:31;;;;;;;15.00;8.80;;;;;;;;;;4972411;28;20120;-65
2021/08/15 06:11:56;;;;;;;18.57;9.13;;;;;;;;;;4972278;28;20154;-66
2021/08/15 06:14:21;;;;;;;15.52;9.00;;;;;;;;;;4972053;28;20031;-66
2021/08/15 06:16:47;;;;;;;15.97;9.60;;;;;;;;;;4972190;28;20027;-66
2021/08/15 06:19:12;;;;;;;15.18;9.20;;;;;;;;;;4972016;28;20251;-66
2021/08/15 06:21:37;;;;;;;18.00;9.80;;;;;;;;;;4972486;28;20042;-65
2021/08/15 06:24:03;;;;;;;18.53;10.10;;;;;;;;;;4971865;28;20106;-65
2021/08/15 06:26:29;;;;;;;18.58;9.10;;;;;;;;;;4972633;28;20286;-65
2021/08/15 06:28:54;;;;;;;15.63;10.00;;;;;;;;;;4971822;28;20054;-66
2021/08/15 06:31:19;;;;;;;15.30;9.77;;;;;;;;;;4971690;28;20049;-66
2021/08/15 06:33:44;;;;;;;17.17;9.77;;;;;;;;;;4971329;28;20031;-67
2021/08/15 06:36:10;;;;;;;17.17;9.52;;;;;;;;;;4971916;28;20548;-66
2021/08/15 06:38:35;;;;;;;17.80;9.57;;;;;;;;;;4971617;28;20026;-66
2021/08/15 06:41:00;;;;;;;20.83;9.33;;;;;;;;;;4971947;28;20029;-66
2021/08/15 06:43:25;;;;;;;15.80;9.50;;;;;;;;;;4971237;28;20805;-66
2021/08/15 06:45:50;;;;;;;15.15;8.70;;;;;;;;;;4971593;28;20097;-66
2021/08/15 06:48:16;;;;;;;19.00;8.50;;;;;;;;;;4986126;28;20054;-67
2021/08/15 06:50:41;;;;;;;12.73;8.67;;;;;;;;;;4971809;28;20290;-66
2021/08/15 06:53:06;;;;;;;14.77;8.63;;;;;;;;;;4971579;28;20609;-66
2021/08/15 06:55:32;;;;;;;18.25;11.20;;;;;;;;;;4975864;28;20773;-67
2021/08/15 06:57:57;;;;;;;15.70;10.52;;;;;;;;;;4971242;28;20123;-66
2021/08/15 07:00:22;;;;;;;13.30;8.53;;;;;;;;;;4971332;28;20378;-65
2021/08/15 07:02:48;;;;;;;23.50;9.90;;;;;;;;;;4971586;28;20058;-66
2021/08/15 07:05:14;;;;;;;16.08;9.55;;;;;;;;;;4970772;28;20761;-65
2021/08/15 07:07:39;;;;;;;18.67;10.35;;;;;;;;;;4971507;28;20101;-64
2021/08/15 07:10:04;;;;;;;18.40;9.87;;;;;;;;;;4971118;28;20042;-66
2021/08/15 07:12:30;;;;;;;14.98;10.05;;;;;;;;;;4971201;28;20654;-66
2021/08/15 07:14:55;;;;;;;19.07;10.93;;;;;;;;;;4971153;28;20098;-66
2021/08/15 07:17:20;;;;;;;18.30;10.15;;;;;;;;;;4970956;28;20312;-64
2021/08/15 07:19:45;;;;;;;15.93;10.30;;;;;;;;;;4970609;28;20018;-66
2021/08/15 07:22:10;;;;;;;17.58;10.88;;;;;;;;;;4971231;28;20353;-66
2021/08/15 07:24:36;;;;;;;21.53;10.80;;;;;;;;;;4985553;28;20502;-66
2021/08/15 07:27:01;;;;;;;21.00;11.65;;;;;;;;;;4972341;28;20360;-66
2021/08/15 07:29:26;;;;;;;21.07;10.80;;;;;;;;;;4970655;28;20102;-66
2021/08/15 07:31:52;;;;;;;19.33;10.77;;;;;;;;;;4970971;28;20274;-66
2021/08/15 07:34:17;;;;;;;17.98;9.95;;;;;;;;;;4970773;28;20027;-66
2021/08/15 07:36:42;;;;;;;15.20;9.00;;;;;;;;;;4970493;28;20037;-66
2021/08/15 07:39:07;;;;;;;15.83;10.03;;;;;;;;;;4970496;28;20026;-66
2021/08/15 07:41:33;;;;;;;14.30;9.85;;;;;;;;;;4970720;28;20321;-66
2021/08/15 07:43:58;;;;;;;18.98;9.27;;;;;;;;;;4969938;28;20054;-66
2021/08/15 07:46:23;;;;;;;17.17;10.00;;;;;;;;;;4970743;28;20026;-66
2021/08/15 07:48:48;;;;;;;17.30;8.67;;;;;;;;;;4970049;28;20271;-66
2021/08/15 07:51:13;;;;;;;18.73;8.73;;;;;;;;;;4970155;28;20030;-66
2021/08/15 07:53:39;;;;;;;18.13;8.37;;;;;;;;;;4970085;28;20324;-66
2021/08/15 07:56:04;;;;;;;13.97;8.30;;;;;;;;;;4976535;28;20281;-66
2021/08/15 07:58:29;;;;;;;15.73;8.80;;;;;;;;;;4970350;28;20341;-66
2021/08/15 08:00:55;;;;;;;15.55;9.23;;;;;;;;;;4970288;28;20470;-65
2021/08/15 08:03:21;;;;;;;15.30;8.65;;;;;;;;;;4970164;28;20019;-66
2021/08/15 08:05:46;;;;;;;16.50;8.80;;;;;;;;;;4969840;28;20061;-66
2021/08/15 08:08:11;;;;;;;15.13;8.68;;;;;;;;;;4970491;28;20065;-66
2021/08/15 08:10:37;;;;;;;18.40;9.80;;;;;;;;;;4970131;28;20115;-65
2021/08/15 08:13:02;;;;;;;20.52;10.60;;;;;;;;;;4970000;28;20273;-64
2021/08/15 08:15:27;;;;;;;15.45;9.98;;;;;;;;;;4969915;28;20026;-66
2021/08/15 08:17:53;;;;;;;18.58;9.00;;;;;;;;;;4970265;28;20023;-65
2021/08/15 08:20:20;;;;;;;17.95;10.00;;;;;;;;;;4969705;28;20145;-65
2021/08/15 08:22:45;;;;;;;16.10;9.45;;;;;;;;;;4963889;28;20038;-67
2021/08/15 08:25:11;;;;;;;16.70;9.07;;;;;;;;;;4972649;28;20018;-66
2021/08/15 08:27:36;;;;;;;15.35;9.02;;;;;;;;;;4970663;28;20860;-66
2021/08/15 08:30:01;;;;;;;22.50;9.13;;;;;;;;;;4969874;28;20031;-66
2021/08/15 08:32:27;;;;;;;14.93;8.85;;;;;;;;;;4970337;28;20737;-66
2021/08/15 08:34:52;;;;;;;14.10;8.80;;;;;;;;;;4969917;28;20687;-66
2021/08/15 08:37:18;;;;;;;15.53;9.43;;;;;;;;;;4969949;28;20078;-66
2021/08/15 08:39:43;;;;;;;12.30;8.18;;;;;;;;;;4970109;28;20262;-66
2021/08/15 08:42:11;;;;;;;15.07;7.95;;;;;;;;;;4984380;28;20030;-65
2021/08/15 08:44:36;;;;;;;16.65;8.48;;;;;;;;;;4969753;28;20054;-65
2021/08/15 08:47:09;;;;;;;16.17;8.87;;;;;;;;;;4969422;28;20415;-66
2021/08/15 08:49:34;;;;;;;17.05;8.63;;;;;;;;;;4969816;28;20413;-66
2021/08/15 08:52:00;;;;;;;14.07;7.80;;;;;;;;;;4969985;28;20102;-66
2021/08/15 08:54:26;;;;;;;15.88;8.40;;;;;;;;;;4969903;28;20026;-66
2021/08/15 08:56:51;;;;;;;16.73;9.07;;;;;;;;;;4973632;28;20019;-66
2021/08/15 08:59:16;;;;;;;16.45;8.73;;;;;;;;;;4973128;28;20510;-66
2021/08/15 09:01:42;;;;;;;18.40;9.10;;;;;;;;;;4973273;28;20027;-67
2021/08/15 09:04:07;;;;;;;17.02;8.75;;;;;;;;;;4973276;28;20038;-66
2021/08/15 09:06:32;;;;;;;14.40;8.52;;;;;;;;;;4973349;28;20110;-66
2021/08/15 09:09:07;;;;;;;17.03;9.67;;;;;;;;;;4973393;28;20022;-66
2021/08/15 09:11:32;;;;;;;18.88;9.13;;;;;;;;;;4973322;28;20329;-66
2021/08/15 09:14:00;;;;;;;11.07;8.40;;;;;;;;;;4973225;28;20019;-65
2021/08/15 09:16:46;;;;;;;15.95;9.05;;;;;;;;;;4973415;28;20026;-65
2021/08/15 09:19:24;;;;;;;15.00;8.95;;;;;;;;;;4972603;28;20034;-66
2021/08/15 09:21:49;;;;;;;18.85;9.75;;;;;;;;;;4973223;28;20050;-66
2021/08/15 09:24:14;;;;;;;15.67;9.17;;;;;;;;;;4972943;28;20505;-66
2021/08/15 09:26:53;;;;;;;18.40;9.83;;;;;;;;;;4977932;28;20031;-66
2021/08/15 09:29:18;;;;;;;15.63;8.77;;;;;;;;;;4973484;28;20277;-66
2021/08/15 09:31:44;;;;;;;19.57;8.70;;;;;;;;;;4973177;28;20634;-66
2021/08/15 09:34:22;;;;;;;14.30;8.82;;;;;;;;;;4972924;28;20023;-66
2021/08/15 09:36:48;;;;;;;12.13;7.67;;;;;;;;;;4972917;28;20779;-66
2021/08/15 09:39:13;;;;;;;14.27;9.27;;;;;;;;;;4972709;28;20023;-66
2021/08/15 09:41:39;;;;;;;15.85;9.52;;;;;;;;;;4972622;28;20025;-65
2021/08/15 09:44:23;;;;;;;14.85;8.63;;;;;;;;;;4972245;28;20082;-66
2021/08/15 09:47:14;;;;;;;17.27;9.52;;;;;;;;;;4972742;28;20451;-66
2021/08/15 09:49:48;;;;;;;16.13;9.00;;;;;;;;;;4971980;28;20035;-66
2021/08/15 09:52:13;;;;;;;14.73;8.13;;;;;;;;;;4972118;28;20034;-66
2021/08/15 09:54:38;;;;;;;23.10;9.17;;;;;;;;;;4972774;28;20019;-66
2021/08/15 09:57:09;;;;;;;16.38;8.52;;;;;;;;;;4972486;28;20101;-66
2021/08/15 09:59:35;;;;;;;10.40;7.43;;;;;;;;;;4972531;28;20360;-67
2021/08/15 10:02:01;;;;;;;13.82;8.15;;;;;;;;;;4972516;28;20023;-66
2021/08/15 10:04:26;;;;;;;13.85;8.35;;;;;;;;;;4972049;28;20102;-67
2021/08/15 10:06:53;;;;;;;20.13;8.73;;;;;;;;;;4970924;28;20556;-66
2021/08/15 10:09:18;;;;;;;12.95;7.90;;;;;;;;;;4972283;28;20061;-66
2021/08/15 10:11:45;;;;;;;14.73;9.50;;;;;;;;;;4971882;28;20043;-66
2021/08/15 10:14:11;;;;;;;18.42;8.73;;;;;;;;;;4976528;28;20022;-66
2021/08/15 10:16:54;;;;;;;14.45;7.93;;;;;;;;;;4971996;28;20027;-66
2021/08/15 10:19:25;;;;;;;17.88;7.50;;;;;;;;;;4972041;28;20027;-65
2021/08/15 10:21:51;;;;;;;14.00;7.70;;;;;;;;;;4972296;28;20038;-67
2021/08/15 10:24:16;;;;;;;11.27;6.90;;;;;;;;;;4971590;28;20542;-66
2021/08/15 10:26:41;;;;;;;16.10;8.55;;;;;;;;;;4977987;28;20035;-66
2021/08/15 10:29:36;;;;;;;15.70;8.40;;;;;;;;;;4971418;28;20431;-65
2021/08/15 10:32:10;;;;;;;17.65;8.27;;;;;;;;;;4976337;28;20353;-66
2021/08/15 10:34:51;;;;;;;13.00;7.05;;;;;;;;;;4982081;28;20026;-67
2021/08/15 10:37:22;;;;;;;13.52;7.50;;;;;;;;;;4987844;28;20054;-67
2021/08/15 10:39:47;;;;;;;15.48;7.28;;;;;;;;;;4987106;28;20054;-67
2021/08/15 10:42:32;;;;;;;15.13;7.20;;;;;;;;;;4976629;28;20194;-66
2021/08/15 10:45:03;;;;;;;12.98;6.88;;;;;;;;;;4984888;28;20039;-66
2021/08/15 10:47:28;;;;;;;15.30;7.05;;;;;;;;;;4979297;28;20097;-66
2021/08/15 10:49:54;;;;;;;20.67;6.40;;;;;;;;;;4978759;28;20515;-66
2021/08/15 10:52:27;;;;;;;11.57;6.82;;;;;;;;;;4969256;28;20875;-67
2021/08/15 10:54:52;;;;;;;13.40;7.40;;;;;;;;;;4969316;28;20220;-66
2021/08/15 10:57:32;;;;;;;20.10;7.28;;;;;;;;;;4971815;28;20522;-66
2021/08/15 10:59:57;;;;;;;20.63;6.80;;;;;;;;;;4970479;28;20030;-67
2021/08/15 11:02:30;;;;;;;13.63;6.60;;;;;;;;;;4968869;28;20078;-66
2021/08/15 11:04:57;;;;;;;14.88;6.75;;;;;;;;;;4975400;28;20467;-66
2021/08/15 11:07:38;;;;;;;13.50;6.95;;;;;;;;;;4984968;28;20203;-66
2021/08/15 11:10:04;;;;;;;13.68;6.05;;;;;;;;;;4971157;28;20031;-67
2021/08/15 11:12:30;;;;;;;15.00;6.95;;;;;;;;;;4971139;28;20038;-66
2021/08/15 11:14:56;;;;;;;14.50;6.50;;;;;;;;;;4970979;28;20394;-66
2021/08/15 11:17:21;;;;;;;13.13;6.57;;;;;;;;;;4971255;28;20030;-66
2021/08/15 11:19:47;;;;;;;14.50;6.60;;;;;;;;;;4970453;28;20111;-66
2021/08/15 11:22:13;;;;;;;12.23;6.53;;;;;;;;;;4970950;28;20033;-67
2021/08/15 11:24:45;;;;;;;11.23;7.45;;;;;;;;;;4971014;28;20274;-66
2021/08/15 11:27:13;;;;;;;12.68;6.35;;;;;;;;;;4971198;28;20053;-67
2021/08/15 11:29:39;;;;;;;9.65;6.93;;;;;;;;;;4970795;28;20497;-66
2021/08/15 11:32:10;;;;;;;14.55;7.05;;;;;;;;;;4970480;28;20023;-66
2021/08/15 11:34:35;;;;;;;15.75;7.03;;;;;;;;;;4970423;28;20093;-66
2021/08/15 11:37:01;;;;;;;19.20;7.90;;;;;;;;;;4970353;28;20059;-67
2021/08/15 11:39:27;;;;;;;13.05;7.32;;;;;;;;;;4970639;28;20026;-66
2021/08/15 11:41:53;;;;;;;12.75;6.63;;;;;;;;;;4970697;28;20038;-66
2021/08/15 11:44:18;;;;;;;15.87;6.90;;;;;;;;;;4970384;28;20043;-65
2021/08/15 11:46:43;;;;;;;16.87;6.83;;;;;;;;;;4970635;28;20043;-65
2021/08/15 11:49:08;;;;;;;16.33;7.70;;;;;;;;;;4970508;28;20026;-66
2021/08/15 11:51:33;;;;;;;12.00;6.60;;;;;;;;;;4970473;28;20042;-66
2021/08/15 11:53:58;;;;;;;13.10;6.83;;;;;;;;;;4970589;28;20014;-66
2021/08/15 11:56:23;;;;;;;12.67;7.67;;;;;;;;;;4975054;28;20029;-66
2021/08/15 11:58:54;;;;;;;15.80;7.70;;;;;;;;;;4970697;28;20081;-66
2021/08/15 12:01:22;;;;;;;11.68;7.18;;;;;;;;;;4970393;28;20382;-66
2021/08/15 12:04:00;;;;;;;15.63;6.97;;;;;;;;;;4969844;28;20474;-66
2021/08/15 12:06:26;;;;;;;17.53;7.17;;;;;;;;;;4970350;28;20038;-66
2021/08/15 12:08:51;;;;;;;11.65;6.40;;;;;;;;;;4970163;28;20026;-67
2021/08/15 12:11:23;;;;;;;13.70;7.43;;;;;;;;;;4970593;28;20058;-66
2021/08/15 12:13:49;;;;;;;12.27;6.60;;;;;;;;;;4970307;28;20061;-66
2021/08/15 12:16:15;;;;;;;13.93;6.82;;;;;;;;;;4969979;28;20026;-66
2021/08/15 12:18:46;;;;;;;13.30;6.97;;;;;;;;;;4970067;28;20027;-65
2021/08/15 12:21:14;;;;;;;15.38;6.95;;;;;;;;;;4969844;28;20072;-66
2021/08/15 12:23:55;;;;;;;11.27;7.03;;;;;;;;;;4969953;28;20063;-67
2021/08/15 12:26:24;;;;;;;14.82;7.30;;;;;;;;;;4972046;28;20030;-66
2021/08/15 12:28:53;;;;;;;13.65;7.57;;;;;;;;;;4970007;28;20023;-66
2021/08/15 12:31:20;;;;;;;16.23;6.55;;;;;;;;;;4972318;28;20521;-68
2021/08/15 12:33:45;;;;;;;12.95;6.20;;;;;;;;;;4973917;28;20498;-66
2021/08/15 12:36:23;;;;;;;13.38;6.80;;;;;;;;;;4973389;28;20498;-66
2021/08/15 12:38:50;;;;;;;14.05;6.93;;;;;;;;;;4973711;28;20069;-67
2021/08/15 12:41:26;;;;;;;18.30;6.90;;;;;;;;;;4973634;28;20034;-65
2021/08/15 12:44:11;;;;;;;14.48;7.00;;;;;;;;;;4972009;28;20146;-66
2021/08/15 12:46:36;;;;;;;14.07;7.43;;;;;;;;;;4973686;28;20066;-66
2021/08/15 12:49:18;;;;;;;12.43;6.57;;;;;;;;;;4973399;28;20023;-67
2021/08/15 12:51:43;;;;;;;10.52;5.88;;;;;;;;;;4969505;28;20065;-66
2021/08/15 12:54:09;;;;;;;12.35;6.40;;;;;;;;;;4973497;28;20356;-67
2021/08/15 12:56:34;;;;;;;15.00;6.00;;;;;;;;;;4973490;28;20031;-65
2021/08/15 12:58:59;;;;;;;10.47;6.37;;;;;;;;;;4972979;28;20026;-66
2021/08/15 13:01:24;;;;;;;11.43;6.23;;;;;;;;;;4971989;28;20039;-66
2021/08/15 13:03:49;;;;;;;10.37;6.40;;;;;;;;;;4973236;28;20103;-66
2021/08/15 13:06:21;;;;;;;11.77;5.23;;;;;;;;;;4973059;28;20023;-67
2021/08/15 13:08:46;;;;;;;14.93;6.30;;;;;;;;;;4973409;28;20035;-67
2021/08/15 13:11:11;;;;;;;10.33;5.43;;;;;;;;;;4972917;28;20182;-66
2021/08/15 13:13:36;;;;;;;11.20;6.07;;;;;;;;;;4973496;28;20034;-65
2021/08/15 13:16:01;;;;;;;12.63;6.20;;;;;;;;;;4973019;28;20093;-66
2021/08/15 13:18:26;;;;;;;15.67;6.73;;;;;;;;;;4973677;28;20027;-67
2021/08/15 13:20:52;;;;;;;12.32;6.80;;;;;;;;;;4972760;28;20281;-66
2021/08/15 13:23:17;;;;;;;12.10;6.10;;;;;;;;;;4972996;28;20038;-65
2021/08/15 13:25:44;;;;;;;13.45;6.15;;;;;;;;;;4976567;28;20023;-67
2021/08/15 13:28:09;;;;;;;9.23;6.47;;;;;;;;;;4973115;28;20057;-66
2021/08/15 13:30:34;;;;;;;9.77;6.43;;;;;;;;;;4972916;28;20470;-66
2021/08/15 13:33:02;;;;;;;15.00;6.03;;;;;;;;;;4972894;28;20018;-66
2021/08/15 13:35:28;;;;;;;12.82;6.68;;;;;;;;;;4972832;28;20027;-67
2021/08/15 13:37:53;;;;;;;10.77;6.47;;;;;;;;;;4972953;28;20137;-66
2021/08/15 13:40:19;;;;;;;14.90;6.90;;;;;;;;;;4972982;28;20546;-67
2021/08/15 13:42:44;;;;;;;13.07;7.88;;;;;;;;;;4972474;28;20062;-67
2021/08/15 13:45:10;;;;;;;12.43;6.90;;;;;;;;;;4972410;28;20106;-67
2021/08/15 13:47:35;;;;;;;11.93;6.13;;;;;;;;;;4972640;28;20325;-67
2021/08/15 13:50:01;;;;;;;12.27;6.43;;;;;;;;;;4972710;28;20458;-66
2021/08/15 13:52:26;;;;;;;13.02;6.32;;;;;;;;;;4972257;28;20023;-66
2021/08/15 13:54:53;;;;;;;13.48;7.05;;;;;;;;;;4973012;28;20443;-66
2021/08/15 13:57:18;;;;;;;12.40;6.70;;;;;;;;;;4973057;28;20054;-66
2021/08/15 13:59:43;;;;;;;11.10;6.10;;;;;;;;;;4972376;28;20054;-67
2021/08/15 14:02:09;;;;;;;10.75;6.25;;;;;;;;;;4972161;28;20105;-67
2021/08/15 14:04:35;;;;;;;12.75;6.30;;;;;;;;;;4972339;28;20093;-68
2021/08/15 14:07:00;;;;;;;14.90;5.82;;;;;;;;;;4971882;28;20027;-67
2021/08/15 14:09:25;;;;;;;15.23;6.43;;;;;;;;;;4972224;28;20015;-66
2021/08/15 14:11:51;;;;;;;20.87;5.83;;;;;;;;;;4972079;28;20057;-66
2021/08/15 14:14:16;;;;;;;13.83;6.57;;;;;;;;;;4972266;28;20302;-65
2021/08/15 14:16:41;;;;;;;11.47;6.90;;;;;;;;;;4972555;28;20849;-66
2021/08/15 14:19:06;;;;;;;13.77;7.00;;;;;;;;;;4972008;28;20792;-66
2021/08/15 14:21:31;;;;;;;14.63;7.00;;;;;;;;;;4972204;28;20105;-66